Caraway, Arkansas
Current Conditions -  °F | °C
As of 10:53 AM on Saturday 25 Oct 2014 (Local Time) from KJBR Reporting Station
Broken Clouds Broken Clouds  
Wind Chill: 73°   Ceiling: 5500
Heat Index: 73°   Visibility: 10mi
Dew Point: 61°   Wind: 6mph
Humidity: 66%   Direction: 270°W
Pressure: 30.08"   Gusts: NA
Location:  35.76°N, 90.32°W
Report Text: KJBR 251553Z AUTO 27005KT 10SM BKN055 23/16 A3008 RMK AO2 SLP184 T02280161
Loading
Personal Weather Stations






























Interactive Weather Map
Tropical Storm Tracking
New forecast layout! Learn more

10-Day Weather Forecast

Advertisements
Track Severe Weather on mobile